sensor_id;sensor_type;location;lat;lon;timestamp;P1;durP1;ratioP1;P2;durP2;ratioP2
33094;SDS011;19459;53.044;8.910;2023-04-01T00:00:57;24.50;;;12.98;;
33094;SDS011;19459;53.044;8.910;2023-04-01T00:03:24;19.00;;;12.32;;
33094;SDS011;19459;53.044;8.910;2023-04-01T00:05:53;23.60;;;12.82;;
33094;SDS011;19459;53.044;8.910;2023-04-01T00:08:20;24.52;;;12.25;;
33094;SDS011;19459;53.044;8.910;2023-04-01T00:10:46;21.05;;;11.50;;
33094;SDS011;19459;53.044;8.910;2023-04-01T00:13:12;19.85;;;11.30;;
33094;SDS011;19459;53.044;8.910;2023-04-01T00:15:38;22.13;;;11.50;;
33094;SDS011;19459;53.044;8.910;2023-04-01T00:18:04;26.33;;;12.77;;
33094;SDS011;19459;53.044;8.910;2023-04-01T00:20:30;27.67;;;12.48;;
33094;SDS011;19459;53.044;8.910;2023-04-01T00:22:56;22.42;;;12.95;;
33094;SDS011;19459;53.044;8.910;2023-04-01T00:25:22;23.33;;;11.63;;
33094;SDS011;19459;53.044;8.910;2023-04-01T00:27:48;18.23;;;11.38;;
33094;SDS011;19459;53.044;8.910;2023-04-01T00:30:15;20.58;;;12.45;;
33094;SDS011;19459;53.044;8.910;2023-04-01T00:32:41;21.73;;;12.35;;
33094;SDS011;19459;53.044;8.910;2023-04-01T00:35:07;24.50;;;12.60;;
33094;SDS011;19459;53.044;8.910;2023-04-01T00:37:34;21.05;;;11.85;;
33094;SDS011;19459;53.044;8.910;2023-04-01T00:40:02;22.67;;;12.68;;
33094;SDS011;19459;53.044;8.910;2023-04-01T00:42:30;22.98;;;13.00;;
33094;SDS011;19459;53.044;8.910;2023-04-01T00:44:56;18.70;;;10.88;;
33094;SDS011;19459;53.044;8.910;2023-04-01T00:47:22;23.67;;;11.98;;
33094;SDS011;19459;53.044;8.910;2023-04-01T00:49:50;19.73;;;10.75;;
33094;SDS011;19459;53.044;8.910;2023-04-01T00:52:19;22.25;;;12.07;;
33094;SDS011;19459;53.044;8.910;2023-04-01T00:54:49;19.85;;;11.93;;
33094;SDS011;19459;53.044;8.910;2023-04-01T00:57:25;23.83;;;12.98;;
33094;SDS011;19459;53.044;8.910;2023-04-01T00:59:56;25.65;;;12.98;;
33094;SDS011;19459;53.044;8.910;2023-04-01T01:02:24;20.00;;;12.13;;
33094;SDS011;19459;53.044;8.910;2023-04-01T01:04:50;21.15;;;12.48;;
33094;SDS011;19459;53.044;8.910;2023-04-01T01:10:31;18.42;;;11.25;;
33094;SDS011;19459;53.044;8.910;2023-04-01T01:15:47;22.02;;;11.60;;
33094;SDS011;19459;53.044;8.910;2023-04-01T01:18:33;19.60;;;11.90;;
33094;SDS011;19459;53.044;8.910;2023-04-01T01:29:52;24.50;;;10.95;;
33094;SDS011;19459;53.044;8.910;2023-04-01T01:38:06;20.63;;;12.40;;
33094;SDS011;19459;53.044;8.910;2023-04-01T01:40:41;21.33;;;12.38;;
33094;SDS011;19459;53.044;8.910;2023-04-01T01:43:09;21.10;;;13.38;;
33094;SDS011;19459;53.044;8.910;2023-04-01T01:45:40;19.65;;;11.95;;
33094;SDS011;19459;53.044;8.910;2023-04-01T01:48:11;18.13;;;12.45;;
33094;SDS011;19459;53.044;8.910;2023-04-01T01:50:38;22.83;;;12.63;;
33094;SDS011;19459;53.044;8.910;2023-04-01T01:53:06;21.85;;;13.43;;
33094;SDS011;19459;53.044;8.910;2023-04-01T01:55:36;21.85;;;13.70;;
33094;SDS011;19459;53.044;8.910;2023-04-01T01:58:19;19.25;;;13.55;;
33094;SDS011;19459;53.044;8.910;2023-04-01T02:00:53;22.00;;;14.30;;
33094;SDS011;19459;53.044;8.910;2023-04-01T02:03:33;22.80;;;13.63;;
33094;SDS011;19459;53.044;8.910;2023-04-01T02:06:02;20.35;;;13.02;;
33094;SDS011;19459;53.044;8.910;2023-04-01T02:11:15;22.02;;;13.57;;
33094;SDS011;19459;53.044;8.910;2023-04-01T02:13:50;23.70;;;13.32;;
33094;SDS011;19459;53.044;8.910;2023-04-01T02:16:23;20.88;;;13.13;;
33094;SDS011;19459;53.044;8.910;2023-04-01T02:18:56;21.30;;;13.90;;
33094;SDS011;19459;53.044;8.910;2023-04-01T02:21:26;22.52;;;13.25;;
33094;SDS011;19459;53.044;8.910;2023-04-01T02:23:56;28.25;;;13.68;;
33094;SDS011;19459;53.044;8.910;2023-04-01T02:26:25;24.17;;;13.52;;
33094;SDS011;19459;53.044;8.910;2023-04-01T02:28:52;20.33;;;13.05;;
33094;SDS011;19459;53.044;8.910;2023-04-01T02:31:19;18.15;;;13.00;;
33094;SDS011;19459;53.044;8.910;2023-04-01T02:33:46;19.00;;;13.15;;
33094;SDS011;19459;53.044;8.910;2023-04-01T02:36:13;24.02;;;12.95;;
33094;SDS011;19459;53.044;8.910;2023-04-01T02:38:41;20.02;;;12.20;;
33094;SDS011;19459;53.044;8.910;2023-04-01T02:41:08;17.98;;;12.55;;
33094;SDS011;19459;53.044;8.910;2023-04-01T02:43:34;21.80;;;14.15;;
33094;SDS011;19459;53.044;8.910;2023-04-01T02:45:59;21.92;;;12.70;;
33094;SDS011;19459;53.044;8.910;2023-04-01T02:48:26;17.75;;;12.10;;
33094;SDS011;19459;53.044;8.910;2023-04-01T02:50:53;20.42;;;12.73;;
33094;SDS011;19459;53.044;8.910;2023-04-01T02:53:18;18.90;;;12.45;;
33094;SDS011;19459;53.044;8.910;2023-04-01T02:55:44;18.58;;;12.07;;
33094;SDS011;19459;53.044;8.910;2023-04-01T02:58:10;22.15;;;12.20;;
33094;SDS011;19459;53.044;8.910;2023-04-01T03:00:36;18.98;;;12.55;;
33094;SDS011;19459;53.044;8.910;2023-04-01T03:03:02;25.52;;;12.18;;
33094;SDS011;19459;53.044;8.910;2023-04-01T03:05:29;24.20;;;11.70;;
33094;SDS011;19459;53.044;8.910;2023-04-01T03:07:55;20.83;;;11.55;;
33094;SDS011;19459;53.044;8.910;2023-04-01T03:10:21;18.25;;;12.13;;
33094;SDS011;19459;53.044;8.910;2023-04-01T03:12:46;21.58;;;11.45;;
33094;SDS011;19459;53.044;8.910;2023-04-01T03:15:13;17.75;;;11.57;;
33094;SDS011;19459;53.044;8.910;2023-04-01T03:17:40;20.65;;;11.68;;
33094;SDS011;19459;53.044;8.910;2023-04-01T03:20:07;19.75;;;10.30;;
33094;SDS011;19459;53.044;8.910;2023-04-01T03:22:35;17.85;;;11.00;;
33094;SDS011;19459;53.044;8.910;2023-04-01T03:25:02;16.38;;;11.20;;
33094;SDS011;19459;53.044;8.910;2023-04-01T03:27:29;17.40;;;10.20;;
33094;SDS011;19459;53.044;8.910;2023-04-01T03:29:55;16.85;;;10.13;;
33094;SDS011;19459;53.044;8.910;2023-04-01T03:32:21;13.93;;;9.85;;
33094;SDS011;19459;53.044;8.910;2023-04-01T03:34:46;17.90;;;10.32;;
33094;SDS011;19459;53.044;8.910;2023-04-01T03:37:12;14.45;;;9.50;;
33094;SDS011;19459;53.044;8.910;2023-04-01T03:39:39;22.08;;;10.95;;
33094;SDS011;19459;53.044;8.910;2023-04-01T03:42:04;19.95;;;9.90;;
33094;SDS011;19459;53.044;8.910;2023-04-01T03:44:31;17.35;;;10.25;;
33094;SDS011;19459;53.044;8.910;2023-04-01T03:46:58;15.63;;;9.75;;
33094;SDS011;19459;53.044;8.910;2023-04-01T03:49:25;18.25;;;10.02;;
33094;SDS011;19459;53.044;8.910;2023-04-01T03:51:51;18.10;;;10.40;;
33094;SDS011;19459;53.044;8.910;2023-04-01T03:54:17;19.88;;;10.95;;
33094;SDS011;19459;53.044;8.910;2023-04-01T03:56:45;19.23;;;10.20;;
33094;SDS011;19459;53.044;8.910;2023-04-01T03:59:11;20.35;;;9.70;;
33094;SDS011;19459;53.044;8.910;2023-04-01T04:01:37;17.75;;;10.50;;
33094;SDS011;19459;53.044;8.910;2023-04-01T04:04:03;13.15;;;9.18;;
33094;SDS011;19459;53.044;8.910;2023-04-01T04:06:29;16.95;;;10.18;;
33094;SDS011;19459;53.044;8.910;2023-04-01T04:08:55;17.38;;;10.07;;
33094;SDS011;19459;53.044;8.910;2023-04-01T04:11:21;15.60;;;9.43;;
33094;SDS011;19459;53.044;8.910;2023-04-01T04:13:47;17.75;;;9.40;;
33094;SDS011;19459;53.044;8.910;2023-04-01T04:16:14;17.48;;;9.65;;
33094;SDS011;19459;53.044;8.910;2023-04-01T04:18:41;12.43;;;8.82;;
33094;SDS011;19459;53.044;8.910;2023-04-01T04:21:10;15.02;;;9.35;;
33094;SDS011;19459;53.044;8.910;2023-04-01T04:23:38;13.07;;;8.85;;
33094;SDS011;19459;53.044;8.910;2023-04-01T04:26:06;13.27;;;8.77;;
33094;SDS011;19459;53.044;8.910;2023-04-01T04:28:35;13.55;;;9.00;;
33094;SDS011;19459;53.044;8.910;2023-04-01T04:31:01;14.00;;;9.27;;
33094;SDS011;19459;53.044;8.910;2023-04-01T04:33:29;17.52;;;9.68;;
33094;SDS011;19459;53.044;8.910;2023-04-01T04:35:55;13.88;;;9.18;;
33094;SDS011;19459;53.044;8.910;2023-04-01T04:38:23;15.35;;;9.00;;
33094;SDS011;19459;53.044;8.910;2023-04-01T04:40:50;16.77;;;9.43;;
33094;SDS011;19459;53.044;8.910;2023-04-01T04:43:16;13.73;;;9.13;;
33094;SDS011;19459;53.044;8.910;2023-04-01T04:45:43;17.80;;;10.10;;
33094;SDS011;19459;53.044;8.910;2023-04-01T04:48:10;17.02;;;9.23;;
33094;SDS011;19459;53.044;8.910;2023-04-01T04:50:41;14.32;;;9.55;;
33094;SDS011;19459;53.044;8.910;2023-04-01T04:53:13;16.90;;;9.85;;
33094;SDS011;19459;53.044;8.910;2023-04-01T04:55:45;14.73;;;9.32;;
33094;SDS011;19459;53.044;8.910;2023-04-01T04:58:15;13.27;;;8.77;;
33094;SDS011;19459;53.044;8.910;2023-04-01T05:00:41;16.63;;;9.15;;
33094;SDS011;19459;53.044;8.910;2023-04-01T05:03:08;20.17;;;8.90;;
33094;SDS011;19459;53.044;8.910;2023-04-01T05:05:35;15.80;;;9.15;;
33094;SDS011;19459;53.044;8.910;2023-04-01T05:08:01;13.50;;;8.63;;
33094;SDS011;19459;53.044;8.910;2023-04-01T05:10:27;15.38;;;9.00;;
33094;SDS011;19459;53.044;8.910;2023-04-01T05:12:53;12.00;;;8.65;;
33094;SDS011;19459;53.044;8.910;2023-04-01T05:15:19;16.08;;;8.35;;
33094;SDS011;19459;53.044;8.910;2023-04-01T05:17:45;11.30;;;8.02;;
33094;SDS011;19459;53.044;8.910;2023-04-01T05:20:11;14.32;;;7.95;;
33094;SDS011;19459;53.044;8.910;2023-04-01T05:22:38;15.65;;;7.68;;
33094;SDS011;19459;53.044;8.910;2023-04-01T05:25:05;11.43;;;7.50;;
33094;SDS011;19459;53.044;8.910;2023-04-01T05:27:31;14.30;;;8.73;;
33094;SDS011;19459;53.044;8.910;2023-04-01T05:29:57;10.70;;;7.72;;
33094;SDS011;19459;53.044;8.910;2023-04-01T05:32:23;20.77;;;8.30;;
33094;SDS011;19459;53.044;8.910;2023-04-01T05:34:53;10.00;;;7.57;;
33094;SDS011;19459;53.044;8.910;2023-04-01T05:37:19;10.52;;;7.78;;
33094;SDS011;19459;53.044;8.910;2023-04-01T05:39:45;9.68;;;7.07;;
33094;SDS011;19459;53.044;8.910;2023-04-01T05:42:11;12.27;;;7.88;;
33094;SDS011;19459;53.044;8.910;2023-04-01T05:44:37;11.95;;;7.20;;
33094;SDS011;19459;53.044;8.910;2023-04-01T05:47:03;12.10;;;7.35;;
33094;SDS011;19459;53.044;8.910;2023-04-01T05:49:29;11.70;;;6.97;;
33094;SDS011;19459;53.044;8.910;2023-04-01T05:51:56;8.57;;;6.93;;
33094;SDS011;19459;53.044;8.910;2023-04-01T05:54:22;8.52;;;6.38;;
33094;SDS011;19459;53.044;8.910;2023-04-01T05:56:48;8.60;;;6.70;;
33094;SDS011;19459;53.044;8.910;2023-04-01T05:59:14;11.43;;;7.03;;
33094;SDS011;19459;53.044;8.910;2023-04-01T06:01:41;10.73;;;6.63;;
33094;SDS011;19459;53.044;8.910;2023-04-01T06:04:10;9.00;;;6.43;;
33094;SDS011;19459;53.044;8.910;2023-04-01T06:06:41;9.48;;;6.78;;
33094;SDS011;19459;53.044;8.910;2023-04-01T06:09:15;9.98;;;6.25;;
33094;SDS011;19459;53.044;8.910;2023-04-01T06:26:46;7.43;;;5.82;;
33094;SDS011;19459;53.044;8.910;2023-04-01T06:41:37;9.50;;;5.35;;
33094;SDS011;19459;53.044;8.910;2023-04-01T06:46:59;8.40;;;5.22;;
33094;SDS011;19459;53.044;8.910;2023-04-01T06:50:23;7.95;;;5.10;;
33094;SDS011;19459;53.044;8.910;2023-04-01T06:56:00;7.03;;;4.97;;
33094;SDS011;19459;53.044;8.910;2023-04-01T06:58:51;7.53;;;4.75;;
33094;SDS011;19459;53.044;8.910;2023-04-01T07:01:33;8.65;;;5.18;;
33094;SDS011;19459;53.044;8.910;2023-04-01T07:04:40;6.32;;;4.60;;
33094;SDS011;19459;53.044;8.910;2023-04-01T07:07:17;6.68;;;4.97;;
33094;SDS011;19459;53.044;8.910;2023-04-01T07:09:56;7.03;;;4.63;;
33094;SDS011;19459;53.044;8.910;2023-04-01T07:12:46;5.38;;;4.55;;
33094;SDS011;19459;53.044;8.910;2023-04-01T07:18:05;8.07;;;4.80;;
33094;SDS011;19459;53.044;8.910;2023-04-01T07:20:46;6.80;;;4.60;;
33094;SDS011;19459;53.044;8.910;2023-04-01T07:23:24;5.57;;;4.35;;
33094;SDS011;19459;53.044;8.910;2023-04-01T07:26:00;12.80;;;5.20;;
33094;SDS011;19459;53.044;8.910;2023-04-01T07:28:41;4.43;;;3.80;;
33094;SDS011;19459;53.044;8.910;2023-04-01T07:34:01;6.55;;;3.75;;
33094;SDS011;19459;53.044;8.910;2023-04-01T07:48:58;5.70;;;4.10;;
33094;SDS011;19459;53.044;8.910;2023-04-01T08:05:22;6.45;;;3.55;;
33094;SDS011;19459;53.044;8.910;2023-04-01T08:10:51;4.88;;;3.55;;
33094;SDS011;19459;53.044;8.910;2023-04-01T08:21:47;3.78;;;2.97;;
33094;SDS011;19459;53.044;8.910;2023-04-01T08:24:24;5.50;;;2.85;;
33094;SDS011;19459;53.044;8.910;2023-04-01T08:27:02;4.15;;;2.83;;
33094;SDS011;19459;53.044;8.910;2023-04-01T08:29:39;6.65;;;2.70;;
33094;SDS011;19459;53.044;8.910;2023-04-01T08:32:39;4.78;;;3.00;;
33094;SDS011;19459;53.044;8.910;2023-04-01T08:35:23;5.13;;;2.90;;
33094;SDS011;19459;53.044;8.910;2023-04-01T08:38:23;5.95;;;2.72;;
33094;SDS011;19459;53.044;8.910;2023-04-01T08:43:51;6.63;;;2.72;;
33094;SDS011;19459;53.044;8.910;2023-04-01T08:52:17;4.80;;;2.13;;
33094;SDS011;19459;53.044;8.910;2023-04-01T09:13:26;6.50;;;2.47;;
33094;SDS011;19459;53.044;8.910;2023-04-01T09:16:28;4.05;;;2.05;;
33094;SDS011;19459;53.044;8.910;2023-04-01T09:25:44;2.92;;;2.10;;
33094;SDS011;19459;53.044;8.910;2023-04-01T09:42:42;3.00;;;2.15;;
33094;SDS011;19459;53.044;8.910;2023-04-01T09:48:43;4.75;;;1.88;;
33094;SDS011;19459;53.044;8.910;2023-04-01T09:54:17;4.72;;;1.65;;
33094;SDS011;19459;53.044;8.910;2023-04-01T10:06:33;3.38;;;1.45;;
33094;SDS011;19459;53.044;8.910;2023-04-01T10:20:41;2.22;;;0.80;;
33094;SDS011;19459;53.044;8.910;2023-04-01T11:14:42;0.90;;;0.80;;
33094;SDS011;19459;53.044;8.910;2023-04-01T11:24:00;0.52;;;0.52;;
33094;SDS011;19459;53.044;8.910;2023-04-01T11:29:32;0.70;;;0.70;;
33094;SDS011;19459;53.044;8.910;2023-04-01T11:41:02;0.60;;;0.40;;
33094;SDS011;19459;53.044;8.910;2023-04-01T11:44:17;1.95;;;0.80;;
33094;SDS011;19459;53.044;8.910;2023-04-01T11:46:52;0.98;;;0.75;;
33094;SDS011;19459;53.044;8.910;2023-04-01T12:10:43;3.90;;;1.17;;
33094;SDS011;19459;53.044;8.910;2023-04-01T12:16:10;1.35;;;1.13;;
33094;SDS011;19459;53.044;8.910;2023-04-01T12:19:11;1.15;;;0.80;;
33094;SDS011;19459;53.044;8.910;2023-04-01T12:27:39;1.45;;;0.90;;
33094;SDS011;19459;53.044;8.910;2023-04-01T12:37:12;1.02;;;0.80;;
33094;SDS011;19459;53.044;8.910;2023-04-01T12:43:12;1.20;;;1.10;;
33094;SDS011;19459;53.044;8.910;2023-04-01T12:58:08;1.10;;;0.68;;
33094;SDS011;19459;53.044;8.910;2023-04-01T13:01:10;1.38;;;0.88;;
33094;SDS011;19459;53.044;8.910;2023-04-01T13:04:14;1.15;;;0.98;;
33094;SDS011;19459;53.044;8.910;2023-04-01T13:10:48;0.85;;;0.80;;
33094;SDS011;19459;53.044;8.910;2023-04-01T13:22:35;0.40;;;0.40;;
33094;SDS011;19459;53.044;8.910;2023-04-01T13:47:46;0.65;;;0.65;;
33094;SDS011;19459;53.044;8.910;2023-04-01T13:54:22;2.38;;;1.00;;
33094;SDS011;19459;53.044;8.910;2023-04-01T14:06:56;2.13;;;1.75;;
33094;SDS011;19459;53.044;8.910;2023-04-01T14:18:24;0.63;;;0.50;;
33094;SDS011;19459;53.044;8.910;2023-04-01T14:23:52;1.05;;;0.90;;
33094;SDS011;19459;53.044;8.910;2023-04-01T14:29:59;1.50;;;1.20;;
33094;SDS011;19459;53.044;8.910;2023-04-01T14:35:38;4.60;;;2.47;;
33094;SDS011;19459;53.044;8.910;2023-04-01T14:41:29;2.38;;;1.30;;
33094;SDS011;19459;53.044;8.910;2023-04-01T14:44:18;3.95;;;2.35;;
33094;SDS011;19459;53.044;8.910;2023-04-01T14:47:09;3.38;;;2.00;;
33094;SDS011;19459;53.044;8.910;2023-04-01T14:52:38;5.72;;;2.72;;
33094;SDS011;19459;53.044;8.910;2023-04-01T14:55:23;2.70;;;1.90;;
33094;SDS011;19459;53.044;8.910;2023-04-01T14:58:04;4.70;;;2.45;;
33094;SDS011;19459;53.044;8.910;2023-04-01T15:00:48;5.70;;;2.72;;
33094;SDS011;19459;53.044;8.910;2023-04-01T15:03:40;3.78;;;2.60;;
33094;SDS011;19459;53.044;8.910;2023-04-01T15:09:23;3.47;;;2.45;;
33094;SDS011;19459;53.044;8.910;2023-04-01T15:12:03;10.43;;;3.72;;
33094;SDS011;19459;53.044;8.910;2023-04-01T15:15:14;4.00;;;3.28;;
33094;SDS011;19459;53.044;8.910;2023-04-01T15:23:34;5.13;;;2.88;;
33094;SDS011;19459;53.044;8.910;2023-04-01T15:32:24;3.70;;;2.70;;
33094;SDS011;19459;53.044;8.910;2023-04-01T15:52:56;4.25;;;2.90;;
33094;SDS011;19459;53.044;8.910;2023-04-01T15:58:47;5.95;;;2.60;;
33094;SDS011;19459;53.044;8.910;2023-04-01T16:13:14;3.63;;;2.83;;
33094;SDS011;19459;53.044;8.910;2023-04-01T16:16:28;2.92;;;2.28;;
33094;SDS011;19459;53.044;8.910;2023-04-01T16:19:41;3.72;;;2.20;;
33094;SDS011;19459;53.044;8.910;2023-04-01T16:22:31;4.05;;;1.90;;
33094;SDS011;19459;53.044;8.910;2023-04-01T16:28:19;5.28;;;2.92;;
33094;SDS011;19459;53.044;8.910;2023-04-01T16:34:58;7.85;;;3.05;;
33094;SDS011;19459;53.044;8.910;2023-04-01T16:37:15;12.05;;;2.63;;
33094;SDS011;19459;53.044;8.910;2023-04-01T16:39:49;3.50;;;2.60;;
33094;SDS011;19459;53.044;8.910;2023-04-01T16:45:16;5.40;;;2.95;;
33094;SDS011;19459;53.044;8.910;2023-04-01T16:48:44;3.90;;;2.15;;
33094;SDS011;19459;53.044;8.910;2023-04-01T16:51:17;13.63;;;6.82;;
33094;SDS011;19459;53.044;8.910;2023-04-01T16:56:39;6.47;;;3.25;;
33094;SDS011;19459;53.044;8.910;2023-04-01T17:05:40;4.80;;;3.67;;
33094;SDS011;19459;53.044;8.910;2023-04-01T17:11:39;4.75;;;3.70;;
33094;SDS011;19459;53.044;8.910;2023-04-01T17:14:32;7.22;;;3.80;;
33094;SDS011;19459;53.044;8.910;2023-04-01T17:23:34;10.02;;;4.13;;
33094;SDS011;19459;53.044;8.910;2023-04-01T17:26:17;10.73;;;4.93;;
33094;SDS011;19459;53.044;8.910;2023-04-01T17:32:12;9.30;;;5.65;;
33094;SDS011;19459;53.044;8.910;2023-04-01T17:37:58;7.93;;;4.88;;
33094;SDS011;19459;53.044;8.910;2023-04-01T17:44:08;12.13;;;5.60;;
33094;SDS011;19459;53.044;8.910;2023-04-01T17:46:59;6.72;;;4.60;;
33094;SDS011;19459;53.044;8.910;2023-04-01T17:52:43;7.82;;;4.90;;
33094;SDS011;19459;53.044;8.910;2023-04-01T17:58:18;7.15;;;4.65;;
33094;SDS011;19459;53.044;8.910;2023-04-01T18:06:49;8.52;;;5.05;;
33094;SDS011;19459;53.044;8.910;2023-04-01T18:16:23;6.82;;;4.78;;
33094;SDS011;19459;53.044;8.910;2023-04-01T18:19:23;13.18;;;5.13;;
33094;SDS011;19459;53.044;8.910;2023-04-01T18:39:23;18.08;;;6.13;;
33094;SDS011;19459;53.044;8.910;2023-04-01T18:44:57;14.77;;;7.00;;
33094;SDS011;19459;53.044;8.910;2023-04-01T18:47:43;7.40;;;4.40;;
33094;SDS011;19459;53.044;8.910;2023-04-01T18:50:43;10.75;;;4.60;;
33094;SDS011;19459;53.044;8.910;2023-04-01T18:53:28;6.15;;;4.07;;
33094;SDS011;19459;53.044;8.910;2023-04-01T18:56:02;7.43;;;3.90;;
33094;SDS011;19459;53.044;8.910;2023-04-01T18:58:35;8.80;;;4.90;;
33094;SDS011;19459;53.044;8.910;2023-04-01T19:01:12;8.98;;;4.82;;
33094;SDS011;19459;53.044;8.910;2023-04-01T19:09:21;14.95;;;5.32;;
33094;SDS011;19459;53.044;8.910;2023-04-01T19:17:54;7.95;;;4.57;;
33094;SDS011;19459;53.044;8.910;2023-04-01T19:20:32;6.72;;;4.25;;
33094;SDS011;19459;53.044;8.910;2023-04-01T19:23:53;8.43;;;4.47;;
33094;SDS011;19459;53.044;8.910;2023-04-01T19:26:00;8.27;;;4.63;;
33094;SDS011;19459;53.044;8.910;2023-04-01T19:31:20;10.32;;;5.38;;
33094;SDS011;19459;53.044;8.910;2023-04-01T19:34:23;8.18;;;4.90;;
33094;SDS011;19459;53.044;8.910;2023-04-01T19:37:02;10.13;;;5.25;;
33094;SDS011;19459;53.044;8.910;2023-04-01T19:43:44;9.57;;;5.90;;
33094;SDS011;19459;53.044;8.910;2023-04-01T19:46:29;11.95;;;6.40;;
33094;SDS011;19459;53.044;8.910;2023-04-01T19:52:15;14.18;;;5.95;;
33094;SDS011;19459;53.044;8.910;2023-04-01T19:55:19;13.50;;;5.75;;
33094;SDS011;19459;53.044;8.910;2023-04-01T19:58:13;9.70;;;5.80;;
33094;SDS011;19459;53.044;8.910;2023-04-01T20:00:52;9.00;;;5.38;;
33094;SDS011;19459;53.044;8.910;2023-04-01T20:09:45;14.57;;;6.32;;
33094;SDS011;19459;53.044;8.910;2023-04-01T20:23:43;10.55;;;6.15;;
33094;SDS011;19459;53.044;8.910;2023-04-01T20:26:23;11.95;;;6.63;;
33094;SDS011;19459;53.044;8.910;2023-04-01T20:29:04;12.23;;;6.25;;
33094;SDS011;19459;53.044;8.910;2023-04-01T20:31:50;14.48;;;6.28;;
33094;SDS011;19459;53.044;8.910;2023-04-01T20:37:37;12.43;;;5.78;;
33094;SDS011;19459;53.044;8.910;2023-04-01T20:52:00;12.90;;;6.35;;
33094;SDS011;19459;53.044;8.910;2023-04-01T20:54:58;14.65;;;6.20;;
33094;SDS011;19459;53.044;8.910;2023-04-01T21:01:07;10.10;;;5.35;;
33094;SDS011;19459;53.044;8.910;2023-04-01T21:18:49;7.03;;;4.35;;
33094;SDS011;19459;53.044;8.910;2023-04-01T21:40:11;13.05;;;7.07;;
33094;SDS011;19459;53.044;8.910;2023-04-01T21:46:14;14.05;;;5.70;;
33094;SDS011;19459;53.044;8.910;2023-04-01T22:00:09;5.75;;;4.45;;
33094;SDS011;19459;53.044;8.910;2023-04-01T22:14:43;8.57;;;4.45;;
33094;SDS011;19459;53.044;8.910;2023-04-01T22:17:41;17.50;;;3.95;;
33094;SDS011;19459;53.044;8.910;2023-04-01T22:29:01;8.65;;;3.80;;
33094;SDS011;19459;53.044;8.910;2023-04-01T22:31:46;8.95;;;4.28;;
33094;SDS011;19459;53.044;8.910;2023-04-01T22:42:51;7.63;;;3.30;;
33094;SDS011;19459;53.044;8.910;2023-04-01T22:45:43;9.88;;;4.00;;
33094;SDS011;19459;53.044;8.910;2023-04-01T22:48:59;12.20;;;3.38;;
33094;SDS011;19459;53.044;8.910;2023-04-01T22:54:43;8.50;;;3.38;;
33094;SDS011;19459;53.044;8.910;2023-04-01T23:05:54;3.45;;;2.72;;
33094;SDS011;19459;53.044;8.910;2023-04-01T23:11:17;9.40;;;2.78;;
33094;SDS011;19459;53.044;8.910;2023-04-01T23:13:52;10.57;;;3.05;;
33094;SDS011;19459;53.044;8.910;2023-04-01T23:16:46;9.68;;;4.05;;
33094;SDS011;19459;53.044;8.910;2023-04-01T23:22:21;10.45;;;2.88;;
33094;SDS011;19459;53.044;8.910;2023-04-01T23:27:45;5.20;;;2.10;;
33094;SDS011;19459;53.044;8.910;2023-04-01T23:35:54;5.03;;;2.42;;
33094;SDS011;19459;53.044;8.910;2023-04-01T23:38:40;8.85;;;2.05;;
33094;SDS011;19459;53.044;8.910;2023-04-01T23:41:08;4.57;;;2.00;;
33094;SDS011;19459;53.044;8.910;2023-04-01T23:44:01;7.30;;;2.97;;
33094;SDS011;19459;53.044;8.910;2023-04-01T23:46:34;10.70;;;2.40;;
33094;SDS011;19459;53.044;8.910;2023-04-01T23:49:02;6.80;;;1.88;;
33094;SDS011;19459;53.044;8.910;2023-04-01T23:51:38;10.00;;;2.67;;
33094;SDS011;19459;53.044;8.910;2023-04-01T23:54:33;7.45;;;2.13;;
33094;SDS011;19459;53.044;8.910;2023-04-01T23:57:38;4.35;;;2.10;;
